Flight Track Log - Related Links

Times and Time Zones

All times are in EDT time to prevent confusion due to time zone crossing. See the AFR1068 flight status page for this flight to view local times or setup timezone preferences in your user account.

Time Position Orientation Groundspeed Altitude Reporting Facility
EDT Latitude Longitude Course Direction KTS MPH feet Rate Location/Type
Sun 07:22:00 AM 49.1770 2.3867 327° Northwest  Level Estimated
Sun 07:23:00 AM 49.2324 2.3313 327° Northwest  Level Estimated
Sun 07:24:00 AM 49.2878 2.2758 327° Northwest  Level Estimated
Sun 07:25:00 AM 49.3431 2.2202 327° Northwest  Level Estimated
Sun 07:26:00 AM 49.3984 2.1645 327° Northwest  Level Estimated
Sun 07:27:00 AM 49.4536 2.1086 327° Northwest  Level Estimated
Sun 07:28:00 AM 49.5089 2.0526 327° Northwest  Level Estimated
Sun 07:29:00 AM 49.5641 1.9965 327° Northwest  Level Estimated
Sun 07:30:00 AM 49.6193 1.9403 327° Northwest  Level Estimated
Sun 07:31:00 AM 49.6744 1.8839 327° Northwest  Level Estimated
Sun 07:32:00 AM 49.7296 1.8274 326° Northwest  Level Estimated
Sun 07:33:00 AM 49.7847 1.7708 326° Northwest  Level Estimated
Sun 07:34:00 AM 49.8398 1.7141 326° Northwest  Level Estimated
Sun 07:35:00 AM 49.8948 1.6572 326° Northwest  Level Estimated
Sun 07:36:00 AM 49.9498 1.6002 326° Northwest  Level Estimated
Sun 07:37:00 AM 50.0048 1.5430 326° Northwest  Level Estimated
Sun 07:38:00 AM 50.0598 1.4858 326° Northwest  Level Estimated
Sun 07:39:00 AM 50.1148 1.4283 326° Northwest  Level Estimated
Sun 07:40:00 AM 50.1697 1.3708 326° Northwest  Level Estimated
Sun 07:41:00 AM 50.2245 1.3131 326° Northwest  Level Estimated
Sun 07:42:00 AM 50.2794 1.2553 326° Northwest  Level Estimated
Sun 07:43:00 AM 50.3342 1.1974 326° Northwest  Level Estimated
Sun 07:44:00 AM 50.3890 1.1393 326° Northwest  Level Estimated
Sun 07:45:00 AM 50.4438 1.0811 326° Northwest  Level Estimated
Sun 07:46:00 AM 50.4985 1.0228 326° Northwest  Level Estimated
Sun 07:47:00 AM 50.5532 0.9643 326° Northwest  Level Estimated
Sun 07:48:00 AM 50.6079 0.9057 326° Northwest  Level Estimated
Sun 07:49:00 AM 50.6626 0.8470 326° Northwest  Level Estimated
Sun 07:50:00 AM 50.7172 0.7881 326° Northwest  Level Estimated
Sun 07:51:00 AM 50.7718 0.7291 326° Northwest  Level Estimated
Sun 07:52:00 AM 50.8264 0.6699 326° Northwest  Level Estimated
Sun 07:53:00 AM 50.8845 0.6066 326° Northwest  Level Estimated
Sun 07:54:00 AM 50.9426 0.5432 326° Northwest  Level Estimated
Sun 07:55:00 AM 51.0008 0.4797 325° Northwest  Level Estimated
Sun 07:56:00 AM 51.0588 0.4159 325° Northwest  Level Estimated
Sun 07:57:00 AM 51.1168 0.3521 325° Northwest  Level Estimated
Sun 07:58:00 AM 51.1748 0.2880 325° Northwest  Level Estimated
Sun 07:59:00 AM 51.2328 0.2238 325° Northwest  Level Estimated
Sun 08:00:00 AM 51.2907 0.1594 325° Northwest  Level Estimated
Sun 08:01:00 AM 51.3486 0.0949 325° Northwest  Level Estimated
Sun 08:02:00 AM 51.4064 0.0302 325° Northwest  Level Estimated
Sun 08:03:00 AM 51.4643 -0.0347 325° Northwest  Level Estimated
Sun 08:04:00 AM 51.5220 -0.0997 325° Northwest  Level Estimated
Sun 08:05:00 AM 51.5798 -0.1649 325° Northwest  Level Estimated
Sun 08:06:00 AM 51.6375 -0.2303 325° Northwest  Level Estimated
Sun 08:07:00 AM 51.6952 -0.2958 325° Northwest  Level Estimated
Sun 08:08:00 AM 51.7528 -0.3615 325° Northwest  Level Estimated
Sun 08:09:00 AM 51.8104 -0.4273 325° Northwest  Level Estimated
Sun 08:10:00 AM 51.8680 -0.4934 325° Northwest  Level Estimated
Sun 08:11:00 AM 51.9255 -0.5596 325° Northwest  Level Estimated
Sun 08:12:00 AM 51.9830 -0.6259 325° Northwest  Level Estimated
Sun 08:13:00 AM 52.0404 -0.6925 325° Northwest  Level Estimated
Sun 08:14:00 AM 52.0978 -0.7592 324° Northwest  Level Estimated
Sun 08:15:00 AM 52.1552 -0.8261 324° Northwest  Level Estimated
Sun 08:16:00 AM 52.2125 -0.8931 324° Northwest  Level Estimated
Sun 08:17:00 AM 52.2698 -0.9604 324° Northwest  Level Estimated
Sun 08:18:00 AM 52.3271 -1.0278 324° Northwest  Level Estimated
Sun 08:19:00 AM 52.3843 -1.0953 324° Northwest  Level Estimated
Sun 08:20:00 AM 52.4415 -1.1631 324° Northwest  Level Estimated
Sun 08:21:00 AM 52.4986 -1.2310 324° Northwest  Level Estimated
Sun 08:22:00 AM 52.5558 -1.2991 324° Northwest  Level Estimated
Sun 08:23:00 AM 52.6128 -1.3674 324° Northwest  Level Estimated
Sun 08:24:00 AM 52.6698 -1.4359 324° Northwest  Level Estimated
Sun 08:25:00 AM 52.7268 -1.5045 324° Northwest  Level Estimated
Sun 08:26:00 AM 52.7838 -1.5733 324° Northwest  Level Estimated
Sun 08:27:00 AM 52.8407 -1.6423 324° Northwest  Level Estimated
Sun 08:28:00 AM 52.8976 -1.7115 324° Northwest  Level Estimated
Sun 08:29:00 AM 52.9544 -1.7809 324° Northwest  Level Estimated
Sun 08:30:00 AM 53.0112 -1.8504 324° Northwest  Level Estimated
Sun 08:31:00 AM 53.0679 -1.9201 324° Northwest  Level Estimated
Sun 08:32:00 AM 53.1246 -1.9900 324° Northwest  Level Estimated
Sun 08:33:00 AM 53.1813 -2.0601 323° Northwest  Level Estimated
Sun 08:34:00 AM 53.2379 -2.1304 323° Northwest  Level Estimated
Sun 08:35:00 AM 53.2945 -2.2009 323° Northwest  Level Estimated
Sun 08:36:00 AM 53.3510 -2.2715 323° Northwest  Level Estimated
Sun 08:37:00 AM 53.3537 -2.2750 323° Northwest  Level Estimated
Sun 08:38:00 AM 53.3537 -2.2750 North  Level Estimated
Sun 08:39:00 AM 53.3537 -2.2750 North  Level Estimated
Sun 08:40:00 AM 53.3537 -2.2750 North  Level Estimated
Sun 08:41:00 AM 53.3537 -2.2750 North  Level Estimated
Sun 08:42:00 AM 53.3537 -2.2750 North  Level Estimated
Sun 08:43:00 AM 53.3537 -2.2750 North  Level Estimated
Sun 08:44:00 AM 53.3537 -2.2750 North  Level Estimated
Sun 08:45:00 AM 53.3537 -2.2750 North  Level Estimated

Login

Don't have an account? Register now (free) for customized features, flight alerts, and more!